createdAt,value
2022-12-29T00:00:01.351Z,98771.20
2022-12-29T00:02:33.832Z,98767.88
2022-12-29T00:05:06.861Z,98761.92
2022-12-29T00:07:38.641Z,98765.71
2022-12-29T00:10:11.373Z,98767.94
2022-12-29T00:13:00.649Z,98770.06
2022-12-29T00:15:41.678Z,98767.45
2022-12-29T00:18:13.520Z,98775.92
2022-12-29T00:21:03.471Z,98775.20
2022-12-29T00:23:52.619Z,98770.90
2022-12-29T00:26:41.871Z,98767.95
2022-12-29T00:29:31.327Z,98766.34
2022-12-29T00:32:20.375Z,98761.69
2022-12-29T00:35:10.541Z,98760.06
2022-12-29T00:38:03.624Z,98762.31
2022-12-29T00:40:53.541Z,98761.98
2022-12-29T00:43:42.758Z,98761.03
2022-12-29T00:46:19.735Z,98754.27
2022-12-29T00:49:09.673Z,98748.20
2022-12-29T00:51:41.289Z,98743.11
2022-12-29T00:54:13.176Z,98737.10
2022-12-29T00:56:47.501Z,98737.38
2022-12-29T00:59:20.169Z,98744.25
2022-12-29T01:01:52.515Z,98751.53
2022-12-29T01:04:25.867Z,98748.69
2022-12-29T01:06:57.501Z,98749.02
2022-12-29T01:09:47.165Z,98748.36
2022-12-29T01:12:38.876Z,98746.16
2022-12-29T01:15:13.278Z,98737.08
2022-12-29T01:17:44.985Z,98737.52
2022-12-29T01:20:16.951Z,98735.46
2022-12-29T01:22:48.754Z,98734.21
2022-12-29T01:25:20.702Z,98742.79
2022-12-29T01:27:52.321Z,98745.95
2022-12-29T01:30:23.947Z,98748.61
2022-12-29T01:32:55.620Z,98751.84
2022-12-29T01:35:27.311Z,98757.73
2022-12-29T01:37:59.941Z,98757.12
2022-12-29T01:40:31.779Z,98759.70
2022-12-29T01:43:04.419Z,98760.97
2022-12-29T01:45:36.111Z,98758.63
2022-12-29T01:48:12.322Z,98763.90
2022-12-29T01:50:48.395Z,98766.40
2022-12-29T01:53:23.293Z,98767.05
2022-12-29T01:55:59.949Z,98766.55
2022-12-29T01:58:34.904Z,98753.48
2022-12-29T02:01:08.095Z,98746.39
2022-12-29T02:03:40.270Z,98746.01
2022-12-29T02:06:17.508Z,98741.35
2022-12-29T02:08:52.315Z,98737.20
2022-12-29T02:11:26.333Z,98735.28
2022-12-29T02:13:59.308Z,98722.34
2022-12-29T02:16:48.362Z,98717.35
2022-12-29T02:19:57.175Z,98712.88
2022-12-29T02:22:32.442Z,98708.67
2022-12-29T02:25:33.081Z,98702.52
2022-12-29T02:28:41.425Z,98699.03
2022-12-29T02:31:23.370Z,98699.55
2022-12-29T02:34:07.255Z,98696.79
2022-12-29T02:36:47.069Z,98697.45
2022-12-29T02:39:30.513Z,98697.66
2022-12-29T02:42:12.029Z,98698.41
2022-12-29T02:44:54.261Z,98704.02
2022-12-29T02:47:35.501Z,98695.36
2022-12-29T02:50:14.058Z,98696.31
2022-12-29T02:52:51.857Z,98697.23
2022-12-29T02:55:23.827Z,98694.77
2022-12-29T02:58:20.789Z,98691.73
2022-12-29T03:01:06.119Z,98688.29
2022-12-29T03:03:51.163Z,98689.90
2022-12-29T03:06:40.078Z,98691.45
2022-12-29T03:09:21.810Z,98700.81
2022-12-29T03:12:12.304Z,98703.64
2022-12-29T03:15:10.396Z,98698.29
2022-12-29T03:17:53.659Z,98691.52
2022-12-29T03:20:33.397Z,98682.80
2022-12-29T03:23:07.716Z,98681.08
2022-12-29T03:25:44.880Z,98680.61
2022-12-29T03:28:23.936Z,98680.70
2022-12-29T03:30:57.200Z,98674.60
2022-12-29T03:33:32.295Z,98679.13
2022-12-29T03:36:09.428Z,98680.80
2022-12-29T03:38:46.315Z,98674.73
2022-12-29T03:41:22.726Z,98676.01
2022-12-29T03:43:54.357Z,98682.61
2022-12-29T03:46:26.089Z,98678.69
2022-12-29T03:48:58.346Z,98677.46
2022-12-29T03:51:29.967Z,98674.30
2022-12-29T03:54:01.930Z,98665.41
2022-12-29T03:56:33.563Z,98664.44
2022-12-29T03:59:05.696Z,98657.16
2022-12-29T04:01:37.401Z,98651.73
2022-12-29T04:04:09.242Z,98651.91
2022-12-29T04:06:41.290Z,98652.69
2022-12-29T04:09:14.291Z,98653.77
2022-12-29T04:11:45.938Z,98652.04
2022-12-29T04:14:17.758Z,98641.64
2022-12-29T04:16:50.062Z,98633.38
2022-12-29T04:19:21.714Z,98629.63
2022-12-29T04:21:53.343Z,98631.48
2022-12-29T04:24:25.263Z,98629.77
2022-12-29T04:26:56.955Z,98622.85
2022-12-29T04:29:28.815Z,98624.75
2022-12-29T04:32:00.419Z,98621.36
2022-12-29T04:34:32.033Z,98624.98
2022-12-29T04:37:03.626Z,98624.25
2022-12-29T04:39:35.286Z,98631.15
2022-12-29T04:42:07.301Z,98632.68
2022-12-29T04:44:44.908Z,98626.44
2022-12-29T04:47:16.987Z,98617.88
2022-12-29T04:49:49.022Z,98609.35
2022-12-29T04:52:20.621Z,98614.59
2022-12-29T04:54:52.263Z,98615.91
2022-12-29T04:57:26.333Z,98621.23
2022-12-29T04:59:57.955Z,98623.08
2022-12-29T05:02:29.810Z,98620.23
2022-12-29T05:05:01.690Z,98620.42
2022-12-29T05:07:34.415Z,98620.15
2022-12-29T05:10:07.793Z,98619.52
2022-12-29T05:12:40.671Z,98622.11
2022-12-29T05:15:14.135Z,98625.16
2022-12-29T05:17:46.258Z,98624.05
2022-12-29T05:20:18.396Z,98617.14
2022-12-29T05:22:50.070Z,98625.81
2022-12-29T05:25:21.702Z,98630.64
2022-12-29T05:27:53.273Z,98633.63
2022-12-29T05:30:24.946Z,98624.72
2022-12-29T05:32:56.571Z,98619.02
2022-12-29T05:35:28.367Z,98613.21
2022-12-29T05:38:00.003Z,98612.08
2022-12-29T05:40:31.601Z,98610.74
2022-12-29T05:43:03.461Z,98610.66
2022-12-29T05:45:35.144Z,98607.00
2022-12-29T05:48:07.887Z,98604.35
2022-12-29T05:50:39.459Z,98604.73
2022-12-29T05:53:11.305Z,98605.59
2022-12-29T05:55:46.950Z,98593.20
2022-12-29T05:58:20.538Z,98596.10
2022-12-29T06:00:52.669Z,98603.81
2022-12-29T06:03:24.417Z,98604.75
2022-12-29T06:05:56.339Z,98600.88
2022-12-29T06:08:27.949Z,98591.73
2022-12-29T06:10:59.708Z,98595.33
2022-12-29T06:13:31.462Z,98598.85
2022-12-29T06:16:03.463Z,98599.15
2022-12-29T06:18:35.250Z,98596.55
2022-12-29T06:21:09.060Z,98591.41
2022-12-29T06:23:40.747Z,98591.66
2022-12-29T06:26:12.442Z,98599.75
2022-12-29T06:28:44.089Z,98596.99
2022-12-29T06:31:15.761Z,98596.64
2022-12-29T06:33:50.013Z,98595.02
2022-12-29T06:36:21.976Z,98590.02
2022-12-29T06:38:54.352Z,98583.77
2022-12-29T06:41:32.042Z,98570.74
2022-12-29T06:44:04.212Z,98563.08
2022-12-29T06:46:35.847Z,98555.84
2022-12-29T06:49:07.482Z,98560.39
2022-12-29T06:51:39.059Z,98561.91
2022-12-29T06:54:11.493Z,98566.73
2022-12-29T06:56:43.087Z,98557.36
2022-12-29T06:59:14.972Z,98559.70
2022-12-29T07:01:46.749Z,98565.74
2022-12-29T07:04:18.603Z,98573.47
2022-12-29T07:06:50.216Z,98577.33
2022-12-29T07:09:22.018Z,98575.80
2022-12-29T07:11:53.598Z,98571.91
2022-12-29T07:14:25.557Z,98572.17
2022-12-29T07:16:57.241Z,98568.89
2022-12-29T07:19:28.966Z,98568.66
2022-12-29T07:22:00.848Z,98568.48
2022-12-29T07:24:32.501Z,98564.39
2022-12-29T07:27:04.301Z,98562.84
2022-12-29T07:29:36.124Z,98567.46
2022-12-29T07:32:08.337Z,98581.65
2022-12-29T07:34:40.822Z,98588.86
2022-12-29T07:37:12.656Z,98593.40
2022-12-29T07:39:44.603Z,98589.91
2022-12-29T07:42:16.303Z,98577.20
2022-12-29T07:44:49.156Z,98576.91
2022-12-29T07:47:20.814Z,98582.77
2022-12-29T07:49:52.475Z,98575.95
2022-12-29T07:52:24.128Z,98580.06
2022-12-29T07:54:55.868Z,98581.09
2022-12-29T07:57:31.732Z,98581.05
2022-12-29T08:00:04.896Z,98582.20
2022-12-29T08:02:36.575Z,98590.57
2022-12-29T08:05:09.973Z,98587.27
2022-12-29T08:07:41.631Z,98581.08
2022-12-29T08:10:14.101Z,98568.21
2022-12-29T08:12:46.122Z,98574.16
2022-12-29T08:15:17.914Z,98580.40
2022-12-29T08:17:49.873Z,98577.70
2022-12-29T08:20:21.750Z,98575.10
2022-12-29T08:22:54.054Z,98569.62
2022-12-29T08:25:25.667Z,98563.15
2022-12-29T08:27:57.717Z,98567.35
2022-12-29T08:30:29.345Z,98568.16
2022-12-29T08:33:01.007Z,98569.36
2022-12-29T08:35:32.616Z,98563.98
2022-12-29T08:38:04.237Z,98566.13
2022-12-29T08:40:35.892Z,98568.05
2022-12-29T08:43:08.730Z,98576.09
2022-12-29T08:45:40.490Z,98582.72
2022-12-29T08:48:12.158Z,98590.20
2022-12-29T08:50:46.536Z,98590.52
2022-12-29T08:53:19.344Z,98586.77
2022-12-29T08:56:00.827Z,98582.56
2022-12-29T08:58:36.152Z,98580.70
2022-12-29T09:01:08.336Z,98575.11
2022-12-29T09:04:14.122Z,98583.29
2022-12-29T09:06:35.092Z,98587.17
2022-12-29T09:09:09.941Z,98586.55
2022-12-29T09:11:41.791Z,98587.45
2022-12-29T09:14:13.843Z,98584.15
2022-12-29T09:17:03.391Z,98579.38
2022-12-29T09:19:35.411Z,98576.95
2022-12-29T09:22:07.019Z,98574.80
2022-12-29T09:24:38.880Z,98574.80
2022-12-29T09:27:10.759Z,98580.63
2022-12-29T09:29:42.614Z,98583.47
2022-12-29T09:32:18.550Z,98581.33
2022-12-29T09:34:50.968Z,98574.91
2022-12-29T09:37:22.682Z,98578.35
2022-12-29T09:39:54.849Z,98571.41
2022-12-29T09:42:34.419Z,98565.16
2022-12-29T09:45:16.600Z,98556.55
2022-12-29T09:47:49.080Z,98560.34
2022-12-29T09:50:29.581Z,98567.84
2022-12-29T09:53:06.789Z,98573.52
2022-12-29T09:55:42.994Z,98567.48
2022-12-29T09:58:22.163Z,98563.25
2022-12-29T10:00:58.784Z,98564.00
2022-12-29T10:03:42.452Z,98559.10
2022-12-29T10:06:20.272Z,98559.77
2022-12-29T10:09:00.564Z,98563.79
2022-12-29T10:11:48.979Z,98557.52
2022-12-29T10:14:36.775Z,98551.39
2022-12-29T10:17:25.320Z,98548.36
2022-12-29T10:20:18.169Z,98545.84
2022-12-29T10:23:07.259Z,98541.54
2022-12-29T10:25:42.593Z,98539.45
2022-12-29T10:28:21.551Z,98542.21
2022-12-29T10:30:55.975Z,98544.30
2022-12-29T10:33:37.159Z,98540.56
2022-12-29T10:36:18.092Z,98542.81
2022-12-29T10:39:01.089Z,98539.73
2022-12-29T10:41:40.631Z,98529.86
2022-12-29T10:44:17.271Z,98521.38
2022-12-29T10:46:54.873Z,98516.40
2022-12-29T10:49:30.386Z,98509.09
2022-12-29T10:52:05.415Z,98512.27
2022-12-29T10:54:47.309Z,98513.90
2022-12-29T10:57:27.713Z,98511.08
2022-12-29T10:59:59.952Z,98507.80
2022-12-29T11:02:51.487Z,98508.50
2022-12-29T11:05:28.963Z,98510.02
2022-12-29T11:08:04.699Z,98510.62
2022-12-29T11:10:41.985Z,98508.06
2022-12-29T11:13:20.329Z,98508.98
2022-12-29T11:15:52.978Z,98510.47
2022-12-29T11:18:27.136Z,98507.95
2022-12-29T11:21:01.465Z,98507.45
2022-12-29T11:23:35.776Z,98510.09
2022-12-29T11:26:17.222Z,98507.11
2022-12-29T11:29:06.061Z,98511.98
2022-12-29T11:31:44.211Z,98508.21
2022-12-29T11:34:24.319Z,98515.39
2022-12-29T11:37:03.993Z,98511.70
2022-12-29T11:39:41.256Z,98509.26
2022-12-29T11:42:18.982Z,98507.25
2022-12-29T11:44:53.414Z,98511.94
2022-12-29T11:47:31.236Z,98514.02
2022-12-29T11:50:09.237Z,98516.31
2022-12-29T11:52:41.534Z,98521.02
2022-12-29T11:55:23.990Z,98516.62
2022-12-29T11:57:57.694Z,98515.44
2022-12-29T12:00:32.998Z,98515.29
2022-12-29T12:03:10.018Z,98513.91
2022-12-29T12:05:46.815Z,98510.89
2022-12-29T12:08:23.073Z,98511.52
2022-12-29T12:11:03.986Z,98515.58
2022-12-29T12:13:41.276Z,98511.62
2022-12-29T12:16:17.354Z,98513.86
2022-12-29T12:18:54.760Z,98511.25
2022-12-29T12:21:33.156Z,98509.27
2022-12-29T12:24:21.469Z,98514.02
2022-12-29T12:27:02.008Z,98505.33
2022-12-29T12:29:40.636Z,98504.09
2022-12-29T12:32:21.275Z,98504.05
2022-12-29T12:34:53.340Z,98505.95
2022-12-29T12:37:50.419Z,98508.09
2022-12-29T12:40:37.125Z,98505.84
2022-12-29T12:43:26.404Z,98503.28
2022-12-29T12:46:12.042Z,98493.94
2022-12-29T12:48:58.296Z,98482.35
2022-12-29T12:51:39.045Z,98478.09
2022-12-29T12:54:24.626Z,98489.00
2022-12-29T12:57:13.580Z,98491.02
2022-12-29T12:59:57.840Z,98487.95
2022-12-29T13:02:42.300Z,98483.91
2022-12-29T13:05:42.077Z,98476.92
2022-12-29T13:08:50.032Z,98474.27
2022-12-29T13:11:31.647Z,98494.52
2022-12-29T13:14:20.719Z,98491.02
2022-12-29T13:16:58.080Z,98492.85
2022-12-29T13:19:36.825Z,98486.92
2022-12-29T13:22:15.659Z,98479.07
2022-12-29T13:24:59.047Z,98476.27
2022-12-29T13:27:43.202Z,98482.77
2022-12-29T13:30:16.080Z,98491.38
2022-12-29T13:32:57.848Z,98497.82
2022-12-29T13:35:44.011Z,98502.95
2022-12-29T13:38:20.921Z,98499.78
2022-12-29T13:40:57.108Z,98490.06
2022-12-29T13:43:30.732Z,98492.78
2022-12-29T13:46:07.640Z,98497.31
2022-12-29T13:48:46.147Z,98495.90
2022-12-29T13:51:27.257Z,98501.37
2022-12-29T13:54:10.211Z,98504.87
2022-12-29T13:56:46.510Z,98500.33
2022-12-29T13:59:25.525Z,98494.02
2022-12-29T14:02:02.944Z,98496.56
2022-12-29T14:04:36.097Z,98499.14
2022-12-29T14:07:15.782Z,98502.92
2022-12-29T14:09:50.655Z,98496.40
2022-12-29T14:12:43.134Z,98497.61
2022-12-29T14:15:28.078Z,98498.20
2022-12-29T14:18:16.542Z,98494.17
2022-12-29T14:20:56.196Z,98492.98
2022-12-29T14:23:39.194Z,98486.67
2022-12-29T14:26:20.959Z,98483.70
2022-12-29T14:28:52.972Z,98490.59
2022-12-29T14:31:42.292Z,98482.51
2022-12-29T14:34:31.320Z,98481.09
2022-12-29T14:37:04.618Z,98482.23
2022-12-29T14:39:39.341Z,98478.30
2022-12-29T14:42:18.483Z,98485.85
2022-12-29T14:44:52.954Z,98480.14
2022-12-29T14:47:29.380Z,98483.27
2022-12-29T14:50:08.820Z,98485.23
2022-12-29T14:52:49.715Z,98491.03
2022-12-29T14:55:41.278Z,98495.40
2022-12-29T14:58:20.641Z,98492.27
2022-12-29T15:00:52.911Z,98490.74
2022-12-29T15:03:27.330Z,98498.61
2022-12-29T15:06:04.752Z,98501.92
2022-12-29T15:08:42.481Z,98505.63
2022-12-29T15:11:19.443Z,98507.48
2022-12-29T15:13:52.033Z,98511.88
2022-12-29T15:16:31.186Z,98512.63
2022-12-29T15:19:03.929Z,98506.56
2022-12-29T15:21:38.328Z,98499.77
2022-12-29T15:24:14.593Z,98500.89
2022-12-29T15:26:50.539Z,98499.95
2022-12-29T15:29:39.234Z,98496.05
2022-12-29T15:32:23.284Z,98491.27
2022-12-29T15:34:54.811Z,98485.02
2022-12-29T15:37:28.714Z,98488.13
2022-12-29T15:40:00.441Z,98484.92
2022-12-29T15:42:49.813Z,98485.23
2022-12-29T15:45:22.300Z,98480.03
2022-12-29T15:47:58.246Z,98489.91
2022-12-29T15:50:32.243Z,98492.17
2022-12-29T15:53:11.397Z,98490.64
2022-12-29T15:55:44.576Z,98482.99
2022-12-29T15:58:24.568Z,98483.80
2022-12-29T16:00:58.760Z,98483.85
2022-12-29T16:03:35.237Z,98486.66
2022-12-29T16:06:27.874Z,98488.96
2022-12-29T16:09:05.136Z,98491.50
2022-12-29T16:11:40.148Z,98497.27
2022-12-29T16:14:18.344Z,98498.97
2022-12-29T16:16:51.685Z,98497.55
2022-12-29T16:19:29.869Z,98494.67
2022-12-29T16:22:03.260Z,98498.60
2022-12-29T16:24:39.431Z,98497.65
2022-12-29T16:27:19.814Z,98497.32
2022-12-29T16:29:55.347Z,98499.58
2022-12-29T16:32:32.683Z,98501.16
2022-12-29T16:35:19.545Z,98505.25
2022-12-29T16:38:08.545Z,98504.70
2022-12-29T16:40:53.663Z,98503.52
2022-12-29T16:43:27.939Z,98505.05
2022-12-29T16:46:28.657Z,98506.95
2022-12-29T16:49:01.396Z,98511.48
2022-12-29T16:51:37.297Z,98519.20
2022-12-29T16:54:19.853Z,98519.62
2022-12-29T16:56:52.437Z,98521.87
2022-12-29T16:59:34.087Z,98523.52
2022-12-29T17:02:13.258Z,98518.36
2022-12-29T17:04:49.470Z,98517.73
2022-12-29T17:07:23.518Z,98514.41
2022-12-29T17:09:55.783Z,98515.16
2022-12-29T17:12:30.822Z,98516.58
2022-12-29T17:15:06.637Z,98512.99
2022-12-29T17:17:40.848Z,98512.58
2022-12-29T17:20:19.304Z,98510.60
2022-12-29T17:22:52.868Z,98507.94
2022-12-29T17:25:29.221Z,98508.74
2022-12-29T17:28:04.361Z,98512.61
2022-12-29T17:30:37.210Z,98505.63
2022-12-29T17:33:14.477Z,98516.35
2022-12-29T17:35:50.443Z,98518.63
2022-12-29T17:38:29.058Z,98517.38
2022-12-29T17:41:01.655Z,98525.42
2022-12-29T17:43:37.021Z,98522.25
2022-12-29T17:46:10.265Z,98519.66
2022-12-29T17:48:41.903Z,98521.91
2022-12-29T17:51:14.708Z,98514.98
2022-12-29T17:53:47.037Z,98521.72
2022-12-29T17:56:18.727Z,98519.80
2022-12-29T17:58:51.646Z,98521.61
2022-12-29T18:01:31.021Z,98521.61
2022-12-29T18:04:05.934Z,98521.38
2022-12-29T18:06:37.491Z,98520.19
2022-12-29T18:09:10.679Z,98516.38
2022-12-29T18:11:44.336Z,98517.41
2022-12-29T18:14:14.883Z,98518.02
2022-12-29T18:16:46.524Z,98525.48
2022-12-29T18:19:18.125Z,98522.98
2022-12-29T18:21:49.719Z,98520.96
2022-12-29T18:24:21.461Z,98519.48
2022-12-29T18:26:53.062Z,98526.57
2022-12-29T18:29:24.615Z,98530.44
2022-12-29T18:31:56.270Z,98533.89
2022-12-29T18:34:27.951Z,98535.30
2022-12-29T18:37:00.101Z,98533.59
2022-12-29T18:39:31.800Z,98533.03
2022-12-29T18:42:03.469Z,98534.92
2022-12-29T18:44:35.171Z,98539.30
2022-12-29T18:47:07.480Z,98539.18
2022-12-29T18:49:39.186Z,98534.02
2022-12-29T18:52:14.875Z,98532.16
2022-12-29T18:54:46.508Z,98532.37
2022-12-29T18:57:18.128Z,98531.95
2022-12-29T18:59:49.759Z,98535.02
2022-12-29T19:02:21.512Z,98531.80
2022-12-29T19:04:55.502Z,98523.73
2022-12-29T19:07:31.434Z,98521.36
2022-12-29T19:10:03.307Z,98523.17
2022-12-29T19:12:35.007Z,98532.44
2022-12-29T19:15:14.728Z,98546.56
2022-12-29T19:17:46.358Z,98544.63
2022-12-29T19:20:29.060Z,98545.43
2022-12-29T19:23:02.287Z,98544.25
2022-12-29T19:25:34.314Z,98539.65
2022-12-29T19:28:06.892Z,98538.27
2022-12-29T19:30:39.963Z,98539.40
2022-12-29T19:33:12.305Z,98543.34
2022-12-29T19:35:44.758Z,98543.50
2022-12-29T19:38:17.185Z,98545.58
2022-12-29T19:40:51.560Z,98545.98
2022-12-29T19:43:23.167Z,98547.27
2022-12-29T19:45:54.891Z,98545.04
2022-12-29T19:48:26.581Z,98550.67
2022-12-29T19:51:06.429Z,98555.48
2022-12-29T19:53:39.057Z,98556.91
2022-12-29T19:56:12.175Z,98564.36
2022-12-29T19:58:47.455Z,98564.27
2022-12-29T20:01:21.620Z,98561.09
2022-12-29T20:03:54.398Z,98567.56
2022-12-29T20:06:26.534Z,98559.44
2022-12-29T20:08:58.422Z,98559.16
2022-12-29T20:11:30.260Z,98566.51
2022-12-29T20:14:02.336Z,98561.37
2022-12-29T20:16:44.508Z,98554.73
2022-12-29T20:19:25.905Z,98544.92
2022-12-29T20:21:57.846Z,98541.42
2022-12-29T20:24:29.559Z,98547.04
2022-12-29T20:27:02.873Z,98535.88
2022-12-29T20:29:38.860Z,98539.02
2022-12-29T20:32:13.452Z,98531.73
2022-12-29T20:34:46.807Z,98523.48
2022-12-29T20:37:20.282Z,98519.80
2022-12-29T20:39:52.165Z,98523.48
2022-12-29T20:42:24.074Z,98520.63
2022-12-29T20:44:55.787Z,98521.80
2022-12-29T20:47:27.483Z,98526.70
2022-12-29T20:49:59.380Z,98523.25
2022-12-29T20:52:31.327Z,98528.85
2022-12-29T20:55:02.970Z,98542.48
2022-12-29T20:57:57.114Z,98535.98
2022-12-29T21:00:26.855Z,98534.21
2022-12-29T21:02:58.834Z,98528.70
2022-12-29T21:05:31.416Z,98537.84
2022-12-29T21:08:03.103Z,98536.69
2022-12-29T21:10:35.059Z,98532.61
2022-12-29T21:13:06.792Z,98534.56
2022-12-29T21:15:38.584Z,98535.91
2022-12-29T21:18:10.180Z,98541.98
2022-12-29T21:20:42.118Z,98546.50
2022-12-29T21:23:13.997Z,98551.59
2022-12-29T21:25:47.019Z,98552.48
2022-12-29T21:28:18.758Z,98551.82
2022-12-29T21:30:51.700Z,98550.20
2022-12-29T21:33:24.182Z,98545.35
2022-12-29T21:35:55.881Z,98547.95
2022-12-29T21:38:29.301Z,98549.04
2022-12-29T21:41:07.513Z,98548.95
2022-12-29T21:43:39.750Z,98549.61
2022-12-29T21:46:11.738Z,98552.20
2022-12-29T21:48:43.394Z,98549.61
2022-12-29T21:51:34.281Z,98552.16
2022-12-29T21:54:20.513Z,98556.66
2022-12-29T21:56:53.739Z,98562.92
2022-12-29T21:59:43.319Z,98559.59
2022-12-29T22:02:40.395Z,98558.99
2022-12-29T22:05:31.498Z,98561.73
2022-12-29T22:08:22.457Z,98568.13
2022-12-29T22:11:12.314Z,98576.09
2022-12-29T22:13:44.102Z,98578.75
2022-12-29T22:16:16.226Z,98588.09
2022-12-29T22:18:47.975Z,98595.09
2022-12-29T22:21:19.839Z,98595.20
2022-12-29T22:23:51.478Z,98597.38
2022-12-29T22:26:23.117Z,98597.54
2022-12-29T22:28:54.860Z,98608.12
2022-12-29T22:31:29.055Z,98610.53
2022-12-29T22:34:02.968Z,98605.71
2022-12-29T22:36:35.017Z,98599.95
2022-12-29T22:39:06.719Z,98601.66
2022-12-29T22:41:38.386Z,98602.61
2022-12-29T22:44:10.471Z,98607.88
2022-12-29T22:46:42.115Z,98605.13
2022-12-29T22:49:13.910Z,98598.10
2022-12-29T22:51:45.552Z,98598.33
2022-12-29T22:54:18.210Z,98600.31
2022-12-29T22:56:50.116Z,98600.15
2022-12-29T22:59:21.760Z,98600.85
2022-12-29T23:01:53.604Z,98602.57
2022-12-29T23:05:01.541Z,98596.88
2022-12-29T23:07:17.226Z,98592.56
2022-12-29T23:09:49.012Z,98589.70
2022-12-29T23:12:20.756Z,98587.41
2022-12-29T23:14:52.445Z,98583.21
2022-12-29T23:17:25.121Z,98579.61
2022-12-29T23:19:56.698Z,98576.91
2022-12-29T23:22:28.350Z,98574.61
2022-12-29T23:25:00.173Z,98573.40
2022-12-29T23:27:32.981Z,98568.65
2022-12-29T23:30:04.964Z,98569.93
2022-12-29T23:32:36.617Z,98570.86
2022-12-29T23:35:09.993Z,98577.38
2022-12-29T23:37:41.576Z,98580.13
2022-12-29T23:40:14.850Z,98585.13
2022-12-29T23:42:46.667Z,98589.13
2022-12-29T23:45:18.685Z,98586.21
2022-12-29T23:47:50.288Z,98575.21
2022-12-29T23:50:21.940Z,98571.23
2022-12-29T23:52:53.573Z,98575.89
2022-12-29T23:55:25.646Z,98569.55
2022-12-29T23:57:57.231Z,98564.58
